Laukaa, Finland
Kieli:  Suomi
CurCond
Päivitetty27/02/2021 16:56 
 

Lähistön Lentoasemien Säätiloja:

 

EFJY - Jyvaskyla (mil/C,) Finland
Etäisyys Sääasemalta: PKo 21km
Päivitetty: 27/02/2021 16:20
Selkeätä
Selkeätä
 Tuulen suunta LLu
Tuuli: LLu 9 km/h
Lämpötila: 3°C
Tuulen purevuus: 0°C
Kastepiste: -5°C
Ilmankosteus: 56%
Ilmanpaine: 1019 hPa
Yhteenveto: Selkeätä
Näkyvyys: Enemmän Kuin 10 km
2021/02/27 14:20 EFJY 271420Z AUTO 29005KT CAVOK 03/M05 Q1019
EFHA - Halli (fin-Afb), Finland
Etäisyys Sääasemalta: Lo 56km
Päivitetty: 27/02/2021 16:50
Selkeätä
Selkeätä
 Tuulen suunta LLu
Tuuli: LLu 9 km/h
Lämpötila: 3°C
Tuulen purevuus: 0°C
Kastepiste: -4°C
Ilmankosteus: 60%
Ilmanpaine: 1019 hPa
Yhteenveto: Selkeätä
Näkyvyys: Enemmän Kuin 10 km
2021/02/27 14:50 EFHA 271450Z AUTO 30005KT CAVOK 03/M04 Q1019
EFMI - Mikkeli, Finland
Etäisyys Sääasemalta: IKa 105km
Päivitetty: 27/02/2021 16:50
Selkeätä
Selkeätä
 Tuulen suunta L
Tuuli: L 7 km/h
Lämpötila: 1°C
Tuulen purevuus: -2°C
Kastepiste: -4°C
Ilmankosteus: 70%
Ilmanpaine: 1019 hPa
Yhteenveto: Selkeätä
Näkyvyys: Enemmän Kuin 10 km
2021/02/27 14:50 EFMI 271450Z AUTO 27004KT CAVOK 01/M04 Q1019
 
EFTP - Tampere/Pirkkala, Finland
Etäisyys Sääasemalta: Lo 135km
Päivitetty: 27/02/2021 16:50
Selkeätä
Selkeätä
 Tuulen suunta L
Tuuli: L 20 km/h
Lämpötila: 3°C
Tuulen purevuus: -2°C
Kastepiste: -4°C
Ilmankosteus: 60%
Ilmanpaine: 1021 hPa
Yhteenveto: Selkeätä
Näkyvyys: Enemmän Kuin 10 km
2021/02/27 14:50 EFTP 271450Z AUTO 28011KT 250V310 CAVOK 03/M04 Q1021
EFKU - Kuopio (mil/Civ), Finland
Etäisyys Sääasemalta: Ko 146km
Päivitetty: 27/02/2021 16:50
Selkeätä
Selkeätä
 Tuulen suunta L
Tuuli: L 4 km/h
Lämpötila: 0°C
Kastepiste: -4°C
Ilmankosteus: 75%
Ilmanpaine: 1017 hPa
Yhteenveto: Selkeätä
Näkyvyys: Enemmän Kuin 10 km
2021/02/27 14:50 EFKU 271450Z AUTO 26002KT CAVOK 00/M04 Q1017
EFSI - Seinajoki-Ilmajo, Finland
Etäisyys Sääasemalta: LLu 149km
Päivitetty: 27/02/2021 16:50
Enimmäkseen pilvistä
Enimmäkseen pilvistä
 Tuulen suunta LLo
Tuuli: LLo 7 km/h
Lämpötila: 2°C
Tuulen purevuus: 0°C
Kastepiste: -4°C
Ilmankosteus: 65%
Ilmanpaine: 1020 hPa
Pilvisyys: Enimmäkseen pilvistä
Näkyvyys: 10 km
Pilvisyystiedot: Joitain Pilviä 1311 m
Enimmäkseen pilvistä 1524 m
Enimmäkseen pilvistä 1981 m
2021/02/27 14:50 EFSI 271450Z AUTO 24004KT 190V300 9999 FEW043 BKN050 BKN065 02/M04 Q1020